Time,TemperatureF,DewpointF,PressureIn,WindDirection,WindDirectionDegrees,WindSpeedMPH,WindSpeedGustMPH,Humidity,HourlyPrecipIn,Conditions,Clouds,dailyrainin,SoftwareType,DateUTC
2013-05-20 00:00:00,63.7,47.7,29.99,North,360,0.0,0.0,56,0.00,,,0.00,Wunderground v.1.13,2013-05-20 07:00:00,
2013-05-20 00:06:00,63.2,47.7,29.98,North,360,0.0,0.0,57,0.00,,,0.00,Wunderground v.1.13,2013-05-20 07:06:00,
2013-05-20 00:15:00,62.6,47.1,29.98,North,32767,0.0,0.0,57,0.00,,,0.00,Wunderground v.1.13,2013-05-20 07:15:00,
2013-05-20 00:20:00,62.2,47.2,29.98,North,360,0.0,0.0,58,0.00,,,0.00,Wunderground v.1.13,2013-05-20 07:20:00,
2013-05-20 00:25:00,61.9,47.0,29.98,North,360,0.0,0.0,58,0.00,,,0.00,Wunderground v.1.13,2013-05-20 07:25:00,
2013-05-20 00:30:00,61.6,47.1,29.98,North,32767,0.0,0.0,59,0.00,,,0.00,Wunderground v.1.13,2013-05-20 07:30:00,
2013-05-20 00:35:00,61.2,47.2,29.98,North,360,0.0,0.0,60,0.00,,,0.00,Wunderground v.1.13,2013-05-20 07:35:00,
2013-05-20 00:45:00,61.0,47.0,29.98,North,32767,0.0,0.0,60,0.00,,,0.00,Wunderground v.1.13,2013-05-20 07:45:00,
2013-05-20 00:55:00,60.8,46.4,29.98,North,360,0.0,0.0,59,0.00,,,0.00,Wunderground v.1.13,2013-05-20 07:55:00,
2013-05-20 01:00:00,61.2,46.8,29.98,North,360,0.0,0.0,59,0.00,,,0.00,Wunderground v.1.13,2013-05-20 08:00:00,
2013-05-20 01:05:00,61.4,46.9,29.98,North,32767,0.0,0.0,59,0.00,,,0.00,Wunderground v.1.13,2013-05-20 08:05:00,
2013-05-20 01:15:00,61.2,46.3,29.98,North,32767,0.0,0.0,58,0.00,,,0.00,Wunderground v.1.13,2013-05-20 08:15:00,
2013-05-20 01:20:00,61.2,46.3,29.97,North,32767,0.0,0.0,58,0.00,,,0.00,Wunderground v.1.13,2013-05-20 08:20:00,
2013-05-20 01:30:00,61.8,45.9,29.98,North,360,0.0,0.0,56,0.00,,,0.00,Wunderground v.1.13,2013-05-20 08:30:00,
2013-05-20 01:35:00,62.0,46.1,29.97,North,32767,0.0,0.0,56,0.00,,,0.00,Wunderground v.1.13,2013-05-20 08:35:00,
2013-05-20 01:40:00,62.0,46.1,29.97,North,32767,0.0,0.0,56,0.00,,,0.00,Wunderground v.1.13,2013-05-20 08:40:00,
2013-05-20 01:45:00,61.9,46.0,29.97,North,32767,0.0,0.0,56,0.00,,,0.00,Wunderground v.1.13,2013-05-20 08:45:00,
2013-05-20 01:50:00,61.7,45.8,29.97,North,32767,0.0,0.0,56,0.00,,,0.00,Wunderground v.1.13,2013-05-20 08:50:00,
2013-05-20 01:55:00,61.4,45.6,29.97,North,360,0.0,0.0,56,0.00,,,0.00,Wunderground v.1.13,2013-05-20 08:55:00,
2013-05-20 02:06:00,60.9,45.1,29.97,North,360,0.0,0.0,56,0.00,,,0.00,Wunderground v.1.13,2013-05-20 09:06:00,
2013-05-20 02:15:00,60.2,44.9,29.97,North,32767,0.0,0.0,57,0.00,,,0.00,Wunderground v.1.13,2013-05-20 09:15:00,
2013-05-20 02:20:00,59.7,44.9,29.97,North,360,0.0,0.0,58,0.00,,,0.00,Wunderground v.1.13,2013-05-20 09:20:00,
2013-05-20 02:25:00,59.3,44.5,29.97,North,32767,0.0,0.0,58,0.00,,,0.00,Wunderground v.1.13,2013-05-20 09:25:00,
2013-05-20 02:30:00,59.2,44.4,29.97,North,360,0.0,0.0,58,0.00,,,0.00,Wunderground v.1.13,2013-05-20 09:30:00,
2013-05-20 02:40:00,59.5,44.7,29.97,North,32767,0.0,0.0,58,0.00,,,0.00,Wunderground v.1.13,2013-05-20 09:40:00,
2013-05-20 02:45:00,59.6,44.8,29.97,North,360,0.0,0.0,58,0.00,,,0.00,Wunderground v.1.13,2013-05-20 09:45:00,
2013-05-20 02:50:00,59.6,44.8,29.97,North,32767,0.0,0.0,58,0.00,,,0.00,Wunderground v.1.13,2013-05-20 09:50:00,
2013-05-20 03:00:00,59.4,43.2,29.97,North,32767,0.0,0.0,55,0.00,,,0.00,Wunderground v.1.13,2013-05-20 10:00:00,
2013-05-20 03:05:00,59.3,42.6,29.97,North,32767,0.0,0.0,54,0.00,,,0.00,Wunderground v.1.13,2013-05-20 10:05:00,
2013-05-20 03:15:00,59.2,43.0,29.97,North,360,0.0,0.0,55,0.00,,,0.00,Wunderground v.1.13,2013-05-20 10:15:00,
2013-05-20 03:25:00,59.3,43.6,29.97,North,32767,0.0,0.0,56,0.00,,,0.00,Wunderground v.1.13,2013-05-20 10:25:00,
2013-05-20 03:30:00,59.5,43.3,29.96,North,32767,0.0,0.0,55,0.00,,,0.00,Wunderground v.1.13,2013-05-20 10:30:00,
2013-05-20 03:35:00,59.7,43.5,29.97,North,32767,0.0,0.0,55,0.00,,,0.00,Wunderground v.1.13,2013-05-20 10:35:00,
2013-05-20 03:40:00,59.8,43.1,29.96,North,32767,0.0,0.0,54,0.00,,,0.00,Wunderground v.1.13,2013-05-20 10:40:00,
2013-05-20 03:50:00,59.9,42.7,29.96,North,360,0.0,0.0,53,0.00,,,0.00,Wunderground v.1.13,2013-05-20 10:50:00,
2013-05-20 03:55:00,60.0,42.3,29.96,North,32767,0.0,0.0,52,0.00,,,0.00,Wunderground v.1.13,2013-05-20 10:55:00,
2013-05-20 04:00:00,60.2,42.5,29.96,North,32767,0.0,0.0,52,0.00,,,0.00,Wunderground v.1.13,2013-05-20 11:00:00,
2013-05-20 04:06:00,60.2,42.5,29.96,North,32767,0.0,0.0,52,0.00,,,0.00,Wunderground v.1.13,2013-05-20 11:06:00,
2013-05-20 04:15:00,60.1,41.9,29.96,North,32767,0.0,0.0,51,0.00,,,0.00,Wunderground v.1.13,2013-05-20 11:15:00,
2013-05-20 04:25:00,59.9,41.2,29.96,North,360,0.0,0.0,50,0.00,,,0.00,Wunderground v.1.13,2013-05-20 11:25:00,
2013-05-20 04:30:00,59.7,41.0,29.96,North,32767,0.0,0.0,50,0.00,,,0.00,Wunderground v.1.13,2013-05-20 11:30:00,
2013-05-20 04:35:00,59.7,41.0,29.96,North,32767,0.0,0.0,50,0.00,,,0.00,Wunderground v.1.13,2013-05-20 11:35:00,
2013-05-20 04:40:00,59.6,40.9,29.96,North,32767,0.0,0.0,50,0.00,,,0.00,Wunderground v.1.13,2013-05-20 11:40:00,
2013-05-20 04:45:00,59.6,40.9,29.96,North,32767,0.0,0.0,50,0.00,,,0.00,Wunderground v.1.13,2013-05-20 11:45:00,
2013-05-20 04:55:00,59.5,40.8,29.96,North,360,0.0,0.0,50,0.00,,,0.00,Wunderground v.1.13,2013-05-20 11:55:00,
2013-05-20 05:00:00,59.5,40.8,29.96,North,32767,0.0,0.0,50,0.00,,,0.00,Wunderground v.1.13,2013-05-20 12:00:00,
2013-05-20 05:05:00,59.4,40.7,29.96,North,32767,0.0,0.0,50,0.00,,,0.00,Wunderground v.1.13,2013-05-20 12:05:00,
2013-05-20 05:15:00,59.0,40.4,29.96,North,32767,0.0,0.0,50,0.00,,,0.00,Wunderground v.1.13,2013-05-20 12:15:00,
2013-05-20 05:25:00,58.9,40.3,29.96,North,32767,0.0,0.0,50,0.00,,,0.00,Wunderground v.1.13,2013-05-20 12:25:00,
2013-05-20 05:35:00,59.0,40.4,29.96,North,32767,0.0,0.0,50,0.00,,,0.00,Wunderground v.1.13,2013-05-20 12:35:00,
2013-05-20 05:40:00,58.9,40.3,29.96,North,32767,0.0,0.0,50,0.00,,,0.00,Wunderground v.1.13,2013-05-20 12:40:00,
2013-05-20 05:45:00,58.7,40.6,29.96,North,32767,0.0,0.0,51,0.00,,,0.00,Wunderground v.1.13,2013-05-20 12:45:00,
2013-05-20 05:50:00,58.6,40.5,29.96,North,32767,0.0,0.0,51,0.00,,,0.00,Wunderground v.1.13,2013-05-20 12:50:00,
2013-05-20 05:55:00,58.5,40.4,29.96,North,32767,0.0,0.0,51,0.00,,,0.00,Wunderground v.1.13,2013-05-20 12:55:00,
2013-05-20 06:06:00,58.3,40.7,29.97,North,32767,0.0,0.0,52,0.00,,,0.00,Wunderground v.1.13,2013-05-20 13:06:00,
2013-05-20 06:15:00,58.0,40.0,29.97,North,32767,0.0,0.0,51,0.00,,,0.00,Wunderground v.1.13,2013-05-20 13:15:00,
2013-05-20 06:20:00,57.8,40.3,29.97,North,360,0.0,0.0,52,0.00,,,0.00,Wunderground v.1.13,2013-05-20 13:20:00,
2013-05-20 06:25:00,57.7,40.7,29.97,North,32767,0.0,0.0,53,0.00,,,0.00,Wunderground v.1.13,2013-05-20 13:25:00,
2013-05-20 06:30:00,57.7,41.2,29.97,North,360,0.0,0.0,54,0.00,,,0.00,Wunderground v.1.13,2013-05-20 13:30:00,
2013-05-20 06:40:00,57.5,41.4,29.97,North,32767,0.0,0.0,55,0.00,,,0.00,Wunderground v.1.13,2013-05-20 13:40:00,
2013-05-20 06:45:00,57.6,41.5,29.97,North,360,0.0,0.0,55,0.00,,,0.00,Wunderground v.1.13,2013-05-20 13:45:00,
2013-05-20 06:50:00,57.7,41.6,29.97,North,32767,0.0,0.0,55,0.00,,,0.00,Wunderground v.1.13,2013-05-20 13:50:00,
2013-05-20 07:00:00,58.1,42.0,29.97,North,32767,0.0,0.0,55,0.00,,,0.00,Wunderground v.1.13,2013-05-20 14:00:00,
2013-05-20 07:06:00,58.8,42.2,29.97,North,32767,0.0,0.0,54,0.00,,,0.00,Wunderground v.1.13,2013-05-20 14:06:00,
2013-05-20 07:15:00,60.5,43.3,29.97,North,360,0.0,0.0,53,0.00,,,0.00,Wunderground v.1.13,2013-05-20 14:15:00,
2013-05-20 07:25:00,61.7,43.9,29.98,North,32767,0.0,0.0,52,0.00,,,0.00,Wunderground v.1.13,2013-05-20 14:25:00,
2013-05-20 07:30:00,62.0,43.7,29.98,North,32767,0.0,0.0,51,0.00,,,0.00,Wunderground v.1.13,2013-05-20 14:30:00,
2013-05-20 07:35:00,62.3,44.4,29.97,North,32767,0.0,0.0,52,0.00,,,0.00,Wunderground v.1.13,2013-05-20 14:35:00,
2013-05-20 07:40:00,62.7,45.3,29.98,North,32767,0.0,0.0,53,0.00,,,0.00,Wunderground v.1.13,2013-05-20 14:40:00,
2013-05-20 07:50:00,63.6,46.1,29.98,North,360,0.0,0.0,53,0.00,,,0.00,Wunderground v.1.13,2013-05-20 14:50:00,
2013-05-20 07:55:00,63.9,45.9,29.98,North,32767,0.0,0.0,52,0.00,,,0.00,Wunderground v.1.13,2013-05-20 14:55:00,
2013-05-20 08:00:00,64.5,44.4,29.98,North,32767,0.0,0.0,48,0.00,,,0.00,Wunderground v.1.13,2013-05-20 15:00:00,
2013-05-20 08:06:00,65.7,43.2,29.98,North,32767,0.0,0.0,44,0.00,,,0.00,Wunderground v.1.13,2013-05-20 15:06:00,
2013-05-20 08:15:00,68.2,42.9,29.98,North,32767,0.0,0.0,40,0.00,,,0.00,Wunderground v.1.13,2013-05-20 15:15:00,
2013-05-20 08:25:00,70.8,43.9,29.98,North,360,0.0,0.0,38,0.00,,,0.00,Wunderground v.1.13,2013-05-20 15:25:00,
2013-05-20 08:30:00,72.0,44.3,29.98,North,32767,0.0,0.0,37,0.00,,,0.00,Wunderground v.1.13,2013-05-20 15:30:00,
2013-05-20 08:35:00,72.7,46.3,29.98,North,32767,0.0,0.0,39,0.00,,,0.00,Wunderground v.1.13,2013-05-20 15:35:00,
2013-05-20 08:40:00,73.5,46.3,29.98,North,360,0.0,0.0,38,0.00,,,0.00,Wunderground v.1.13,2013-05-20 15:40:00,
2013-05-20 08:45:00,73.9,48.1,29.98,North,32767,0.0,0.0,40,0.00,,,0.00,Wunderground v.1.13,2013-05-20 15:45:00,
2013-05-20 08:50:00,74.2,48.3,29.98,North,360,0.0,0.0,40,0.00,,,0.00,Wunderground v.1.13,2013-05-20 15:50:00,
2013-05-20 09:00:00,74.8,48.2,29.98,North,32767,0.0,0.0,39,0.00,,,0.00,Wunderground v.1.13,2013-05-20 16:00:00,
2013-05-20 09:05:00,75.0,47.7,29.98,North,32767,0.0,0.0,38,0.00,,,0.00,Wunderground v.1.13,2013-05-20 16:05:00,
2013-05-20 09:15:00,75.7,46.8,29.98,North,32767,0.0,0.0,36,0.00,,,0.00,Wunderground v.1.13,2013-05-20 16:15:00,
2013-05-20 09:25:00,76.2,45.8,29.98,North,32767,0.0,0.0,34,0.00,,,0.00,Wunderground v.1.13,2013-05-20 16:25:00,
2013-05-20 09:35:00,77.2,47.4,29.98,North,32767,0.0,0.0,35,0.00,,,0.00,Wunderground v.1.13,2013-05-20 16:35:00,
2013-05-20 09:40:00,77.7,47.1,29.98,North,32767,0.0,0.0,34,0.00,,,0.00,Wunderground v.1.13,2013-05-20 16:40:00,
2013-05-20 09:45:00,78.1,46.6,29.98,North,32767,0.0,0.0,33,0.00,,,0.00,Wunderground v.1.13,2013-05-20 16:45:00,
2013-05-20 09:50:00,78.4,47.7,29.97,North,32767,0.0,0.0,34,0.00,,,0.00,Wunderground v.1.13,2013-05-20 16:50:00,
2013-05-20 09:55:00,78.4,48.5,29.97,North,32767,0.0,0.0,35,0.00,,,0.00,Wunderground v.1.13,2013-05-20 16:55:00,
2013-05-20 10:00:00,78.7,48.7,29.97,North,32767,0.0,0.0,35,0.00,,,0.00,Wunderground v.1.13,2013-05-20 17:00:00,
2013-05-20 10:06:00,79.2,49.2,29.97,North,32767,0.0,0.0,35,0.00,,,0.00,Wunderground v.1.13,2013-05-20 17:06:00,
2013-05-20 10:15:00,80.7,48.9,29.97,North,32767,0.0,0.0,33,0.00,,,0.00,Wunderground v.1.13,2013-05-20 17:15:00,
2013-05-20 10:20:00,81.3,49.4,29.97,North,360,0.0,0.0,33,0.00,,,0.00,Wunderground v.1.13,2013-05-20 17:20:00,
2013-05-20 10:25:00,81.7,49.8,29.97,North,32767,0.0,0.0,33,0.00,,,0.00,Wunderground v.1.13,2013-05-20 17:25:00,
2013-05-20 10:30:00,82.2,49.4,29.98,North,32767,0.0,0.0,32,0.00,,,0.00,Wunderground v.1.13,2013-05-20 17:30:00,
2013-05-20 10:35:00,82.6,49.7,29.98,North,32767,0.0,0.0,32,0.00,,,0.00,Wunderground v.1.13,2013-05-20 17:35:00,
2013-05-20 10:45:00,83.0,48.4,29.97,North,360,0.0,0.0,30,0.00,,,0.00,Wunderground v.1.13,2013-05-20 17:45:00,
2013-05-20 10:50:00,83.5,48.8,29.97,North,32767,0.0,0.0,30,0.00,,,0.00,Wunderground v.1.13,2013-05-20 17:50:00,
2013-05-20 10:55:00,84.2,48.5,29.97,North,32767,0.0,0.0,29,0.00,,,0.00,Wunderground v.1.13,2013-05-20 17:55:00,
2013-05-20 11:05:00,85.4,49.5,29.97,North,32767,0.0,0.0,29,0.00,,,0.00,Wunderground v.1.13,2013-05-20 18:05:00,
2013-05-20 11:15:00,86.9,47.9,29.97,North,32767,0.0,0.0,26,0.00,,,0.00,Wunderground v.1.13,2013-05-20 18:15:00,
2013-05-20 11:20:00,87.0,48.0,29.97,North,360,0.0,0.0,26,0.00,,,0.00,Wunderground v.1.13,2013-05-20 18:20:00,
2013-05-20 11:30:00,86.9,46.8,29.97,North,360,0.0,0.0,25,0.00,,,0.00,Wunderground v.1.13,2013-05-20 18:30:00,
2013-05-20 11:35:00,86.9,47.9,29.97,North,32767,0.0,0.0,26,0.00,,,0.00,Wunderground v.1.13,2013-05-20 18:35:00,
2013-05-20 11:40:00,87.4,47.3,29.96,North,360,0.0,0.0,25,0.00,,,0.00,Wunderground v.1.13,2013-05-20 18:40:00,
2013-05-20 11:45:00,87.5,47.3,29.96,North,32767,0.0,0.0,25,0.00,,,0.00,Wunderground v.1.13,2013-05-20 18:45:00,
2013-05-20 11:55:00,87.9,47.7,29.96,North,360,0.0,0.0,25,0.00,,,0.00,Wunderground v.1.13,2013-05-20 18:55:00,
2013-05-20 12:00:00,88.8,48.4,29.96,North,32767,0.0,0.0,25,0.00,,,0.00,Wunderground v.1.13,2013-05-20 19:00:00,
2013-05-20 12:06:00,88.6,47.2,29.96,North,32767,0.0,0.0,24,0.00,,,0.00,Wunderground v.1.13,2013-05-20 19:06:00,
2013-05-20 12:15:00,88.5,46.0,29.96,North,32767,0.0,0.0,23,0.00,,,0.00,Wunderground v.1.13,2013-05-20 19:15:00,
2013-05-20 12:20:00,89.0,46.4,29.96,North,360,0.0,0.0,23,0.00,,,0.00,Wunderground v.1.13,2013-05-20 19:20:00,
2013-05-20 12:30:00,90.1,46.1,29.96,North,32767,0.0,0.0,22,0.00,,,0.00,Wunderground v.1.13,2013-05-20 19:30:00,
2013-05-20 12:35:00,90.6,45.3,29.95,North,32767,0.0,0.0,21,0.00,,,0.00,Wunderground v.1.13,2013-05-20 19:35:00,
2013-05-20 12:40:00,91.0,45.6,29.96,North,32767,0.0,0.0,21,0.00,,,0.00,Wunderground v.1.13,2013-05-20 19:40:00,
2013-05-20 12:45:00,91.8,45.0,29.95,North,32767,0.0,0.0,20,0.00,,,0.00,Wunderground v.1.13,2013-05-20 19:45:00,
2013-05-20 12:55:00,92.5,45.6,29.95,North,360,0.0,0.0,20,0.00,,,0.00,Wunderground v.1.13,2013-05-20 19:55:00,
2013-05-20 13:06:00,92.3,45.4,29.95,North,32767,0.0,0.0,20,0.00,,,0.00,Wunderground v.1.13,2013-05-20 20:06:00,
2013-05-20 13:15:00,92.4,48.0,29.95,North,32767,0.0,0.0,22,0.00,,,0.00,Wunderground v.1.13,2013-05-20 20:15:00,
2013-05-20 13:20:00,92.2,46.6,29.95,North,360,0.0,0.0,21,0.00,,,0.00,Wunderground v.1.13,2013-05-20 20:20:00,
2013-05-20 13:25:00,91.6,47.4,29.95,North,32767,0.0,0.0,22,0.00,,,0.00,Wunderground v.1.13,2013-05-20 20:25:00,
2013-05-20 13:30:00,91.2,47.0,29.95,North,360,0.0,0.0,22,0.00,,,0.00,Wunderground v.1.13,2013-05-20 20:30:00,
2013-05-20 13:40:00,89.6,46.9,29.95,North,32767,0.0,0.0,23,0.00,,,0.00,Wunderground v.1.13,2013-05-20 20:40:00,
2013-05-20 13:45:00,89.2,45.4,29.95,North,360,0.0,0.0,22,0.00,,,0.00,Wunderground v.1.13,2013-05-20 20:45:00,
2013-05-20 13:50:00,89.1,45.3,29.95,North,32767,0.0,0.0,22,0.00,,,0.00,Wunderground v.1.13,2013-05-20 20:50:00,
2013-05-20 13:55:00,89.3,45.5,29.95,North,360,0.0,0.0,22,0.00,,,0.00,Wunderground v.1.13,2013-05-20 20:55:00,
2013-05-20 14:00:00,89.2,45.4,29.95,North,32767,0.0,0.0,22,0.00,,,0.00,Wunderground v.1.13,2013-05-20 21:00:00,
2013-05-20 14:06:00,89.3,45.5,29.95,North,360,0.0,0.0,22,0.00,,,0.00,Wunderground v.1.13,2013-05-20 21:06:00,
2013-05-20 14:15:00,89.5,45.6,29.95,North,32767,0.0,0.0,22,0.00,,,0.00,Wunderground v.1.13,2013-05-20 21:15:00,
2013-05-20 14:20:00,90.0,46.0,29.94,North,32767,0.0,0.0,22,0.00,,,0.00,Wunderground v.1.13,2013-05-20 21:20:00,
2013-05-20 14:25:00,89.7,47.0,29.94,North,32767,0.0,0.0,23,0.00,,,0.00,Wunderground v.1.13,2013-05-20 21:25:00,
2013-05-20 14:30:00,89.6,46.9,29.95,North,32767,0.0,0.0,23,0.00,,,0.00,Wunderground v.1.13,2013-05-20 21:30:00,
2013-05-20 14:40:00,88.4,44.7,29.94,North,32767,0.0,0.0,22,0.00,,,0.00,Wunderground v.1.13,2013-05-20 21:40:00,
2013-05-20 14:50:00,87.6,45.2,29.93,North,32767,0.0,0.0,23,0.00,,,0.00,Wunderground v.1.13,2013-05-20 21:50:00,
2013-05-20 14:55:00,87.4,43.9,29.93,North,32767,0.0,0.0,22,0.00,,,0.00,Wunderground v.1.13,2013-05-20 21:55:00,
2013-05-20 15:00:00,87.2,44.9,29.93,North,32767,0.0,0.0,23,0.00,,,0.00,Wunderground v.1.13,2013-05-20 22:00:00,
2013-05-20 15:06:00,87.4,45.1,29.93,North,360,0.0,0.0,23,0.00,,,0.00,Wunderground v.1.13,2013-05-20 22:06:00,
2013-05-20 15:15:00,87.8,45.4,29.93,North,32767,0.0,0.0,23,0.00,,,0.00,Wunderground v.1.13,2013-05-20 22:15:00,
2013-05-20 15:25:00,87.5,44.0,29.92,North,360,0.0,0.0,22,0.00,,,0.00,Wunderground v.1.13,2013-05-20 22:25:00,
2013-05-20 15:30:00,87.1,45.9,29.92,North,32767,0.0,0.0,24,0.00,,,0.00,Wunderground v.1.13,2013-05-20 22:30:00,
2013-05-20 15:35:00,87.1,44.8,29.92,North,360,0.0,0.0,23,0.00,,,0.00,Wunderground v.1.13,2013-05-20 22:35:00,
2013-05-20 15:40:00,86.8,47.8,29.92,North,32767,0.0,0.0,26,0.00,,,0.00,Wunderground v.1.13,2013-05-20 22:40:00,
2013-05-20 15:45:00,86.6,48.6,29.92,North,360,0.0,0.0,27,0.00,,,0.00,Wunderground v.1.13,2013-05-20 22:45:00,
2013-05-20 15:55:00,85.7,49.8,29.91,North,32767,0.0,0.0,29,0.00,,,0.00,Wunderground v.1.13,2013-05-20 22:55:00,
2013-05-20 16:06:00,84.7,50.7,29.91,North,32767,0.0,0.0,31,0.00,,,0.00,Wunderground v.1.13,2013-05-20 23:06:00,
2013-05-20 16:15:00,84.1,51.1,29.91,North,360,0.0,0.0,32,0.00,,,0.00,Wunderground v.1.13,2013-05-20 23:15:00,
2013-05-20 16:20:00,83.6,50.6,29.91,North,32767,0.0,0.0,32,0.00,,,0.00,Wunderground v.1.13,2013-05-20 23:20:00,
2013-05-20 16:25:00,83.4,50.4,29.91,North,32767,0.0,0.0,32,0.00,,,0.00,Wunderground v.1.13,2013-05-20 23:25:00,
2013-05-20 16:30:00,83.5,50.5,29.91,North,360,0.0,0.0,32,0.00,,,0.00,Wunderground v.1.13,2013-05-20 23:30:00,
2013-05-20 16:40:00,82.7,50.7,29.91,North,32767,0.0,0.0,33,0.00,,,0.00,Wunderground v.1.13,2013-05-20 23:40:00,
2013-05-20 16:45:00,82.1,51.7,29.91,North,32767,0.0,0.0,35,0.00,,,0.00,Wunderground v.1.13,2013-05-20 23:45:00,
2013-05-20 16:50:00,81.8,50.7,29.90,North,360,0.0,0.0,34,0.00,,,0.00,Wunderground v.1.13,2013-05-20 23:50:00,
2013-05-20 16:55:00,81.4,51.1,29.90,North,32767,0.0,0.0,35,0.00,,,0.00,Wunderground v.1.13,2013-05-20 23:55:00,
2013-05-20 17:06:00,80.7,50.5,29.90,North,32767,0.0,0.0,35,0.00,,,0.00,Wunderground v.1.13,2013-05-21 00:06:00,
2013-05-20 17:15:00,80.5,49.5,29.90,North,32767,0.0,0.0,34,0.00,,,0.00,Wunderground v.1.13,2013-05-21 00:15:00,
2013-05-20 17:20:00,80.9,49.9,29.90,North,32767,0.0,0.0,34,0.00,,,0.00,Wunderground v.1.13,2013-05-21 00:20:00,
2013-05-20 17:25:00,81.1,49.3,29.90,North,32767,0.0,0.0,33,0.00,,,0.00,Wunderground v.1.13,2013-05-21 00:25:00,
2013-05-20 17:30:00,80.9,49.9,29.90,North,32767,0.0,0.0,34,0.00,,,0.00,Wunderground v.1.13,2013-05-21 00:30:00,
2013-05-20 17:40:00,80.4,50.2,29.90,North,360,0.0,0.0,35,0.00,,,0.00,Wunderground v.1.13,2013-05-21 00:40:00,
2013-05-20 17:45:00,79.7,51.1,29.90,North,32767,0.0,0.0,37,0.00,,,0.00,Wunderground v.1.13,2013-05-21 00:45:00,
2013-05-20 17:50:00,79.5,51.7,29.89,North,360,0.0,0.0,38,0.00,,,0.00,Wunderground v.1.13,2013-05-21 00:50:00,
2013-05-20 17:55:00,79.7,51.8,29.89,North,32767,0.0,0.0,38,0.00,,,0.00,Wunderground v.1.13,2013-05-21 00:55:00,
2013-05-20 18:06:00,78.2,51.2,29.89,North,32767,0.0,0.0,39,0.00,,,0.00,Wunderground v.1.13,2013-05-21 01:06:00,
2013-05-20 18:15:00,75.8,51.1,29.89,North,32767,0.0,0.0,42,0.00,,,0.00,Wunderground v.1.13,2013-05-21 01:15:00,
2013-05-20 18:25:00,74.8,50.8,29.88,North,32767,0.0,0.0,43,0.00,,,0.00,Wunderground v.1.13,2013-05-21 01:25:00,
2013-05-20 18:30:00,74.2,50.9,29.88,North,360,0.0,0.0,44,0.00,,,0.00,Wunderground v.1.13,2013-05-21 01:30:00,
2013-05-20 18:35:00,73.9,50.6,29.88,North,32767,0.0,0.0,44,0.00,,,0.00,Wunderground v.1.13,2013-05-21 01:35:00,
2013-05-20 18:40:00,73.8,49.9,29.88,North,360,0.0,0.0,43,0.00,,,0.00,Wunderground v.1.13,2013-05-21 01:40:00,
2013-05-20 18:50:00,73.0,49.8,29.88,North,32767,0.0,0.0,44,0.00,,,0.00,Wunderground v.1.13,2013-05-21 01:50:00,
2013-05-20 18:55:00,72.7,50.1,29.88,North,360,0.0,0.0,45,0.00,,,0.00,Wunderground v.1.13,2013-05-21 01:55:00,
2013-05-20 19:00:00,72.2,49.7,29.88,North,32767,0.0,0.0,45,0.00,,,0.00,Wunderground v.1.13,2013-05-21 02:00:00,
2013-05-20 19:06:00,71.5,49.6,29.88,North,32767,0.0,0.0,46,0.00,,,0.00,Wunderground v.1.13,2013-05-21 02:06:00,
2013-05-20 19:15:00,69.8,49.2,29.89,North,32767,0.0,0.0,48,0.00,,,0.00,Wunderground v.1.13,2013-05-21 02:15:00,
2013-05-20 19:25:00,68.7,48.8,29.89,North,32767,0.0,0.0,49,0.00,,,0.00,Wunderground v.1.13,2013-05-21 02:25:00,
2013-05-20 19:30:00,68.4,49.0,29.89,North,360,0.0,0.0,50,0.00,,,0.00,Wunderground v.1.13,2013-05-21 02:30:00,
2013-05-20 19:35:00,67.9,49.1,29.89,North,32767,0.0,0.0,51,0.00,,,0.00,Wunderground v.1.13,2013-05-21 02:35:00,
2013-05-20 19:40:00,67.5,48.7,29.89,North,360,0.0,0.0,51,0.00,,,0.00,Wunderground v.1.13,2013-05-21 02:40:00,
2013-05-20 19:45:00,67.1,48.9,29.89,North,32767,0.0,0.0,52,0.00,,,0.00,Wunderground v.1.13,2013-05-21 02:45:00,
2013-05-20 19:50:00,66.6,48.4,29.89,North,360,0.0,0.0,52,0.00,,,0.00,Wunderground v.1.13,2013-05-21 02:50:00,
2013-05-20 20:00:00,65.1,47.5,29.90,North,32767,0.0,0.0,53,0.00,,,0.00,Wunderground v.1.13,2013-05-21 03:00:00,
2013-05-20 20:05:00,64.1,47.1,29.90,North,360,0.0,0.0,54,0.00,,,0.00,Wunderground v.1.13,2013-05-21 03:05:00,
2013-05-20 20:15:00,62.4,47.0,29.90,North,360,0.0,0.0,57,0.00,,,0.00,Wunderground v.1.13,2013-05-21 03:15:00,
2013-05-20 20:25:00,60.9,46.5,29.90,North,360,0.0,0.0,59,0.00,,,0.00,Wunderground v.1.13,2013-05-21 03:25:00,
2013-05-20 20:35:00,59.6,46.1,29.90,North,32767,0.0,0.0,61,0.00,,,0.00,Wunderground v.1.13,2013-05-21 03:35:00,
2013-05-20 20:40:00,59.0,46.0,29.89,North,360,0.0,0.0,62,0.00,,,0.00,Wunderground v.1.13,2013-05-21 03:40:00,
2013-05-20 20:45:00,59.0,46.4,29.89,North,32767,0.0,0.0,63,0.00,,,0.00,Wunderground v.1.13,2013-05-21 03:45:00,
2013-05-20 20:50:00,58.5,46.4,29.89,North,360,0.0,0.0,64,0.00,,,0.00,Wunderground v.1.13,2013-05-21 03:50:00,
2013-05-20 20:55:00,58.1,46.4,29.89,North,32767,0.0,0.0,65,0.00,,,0.00,Wunderground v.1.13,2013-05-21 03:55:00,
2013-05-20 21:00:00,57.8,46.1,29.90,North,360,0.0,0.0,65,0.00,,,0.00,Wunderground v.1.13,2013-05-21 04:00:00,
2013-05-20 21:06:00,57.4,46.1,29.90,North,32767,0.0,0.0,66,0.00,,,0.00,Wunderground v.1.13,2013-05-21 04:06:00,
2013-05-20 21:10:00,57.2,46.3,29.90,North,32767,0.0,0.0,67,0.00,,,0.00,Wunderground v.1.13,2013-05-21 04:10:00,
2013-05-20 21:15:00,57.0,46.1,29.91,North,32767,0.0,0.0,67,0.00,,,0.00,Wunderground v.1.13,2013-05-21 04:15:00,
2013-05-20 21:20:00,56.8,46.0,29.91,North,32767,0.0,0.0,67,0.00,,,0.00,Wunderground v.1.13,2013-05-21 04:20:00,
2013-05-20 21:25:00,56.4,46.0,29.91,North,32767,0.0,0.0,68,0.00,,,0.00,Wunderground v.1.13,2013-05-21 04:25:00,
2013-05-20 21:30:00,56.0,46.0,29.91,North,360,0.0,0.0,69,0.00,,,0.00,Wunderground v.1.13,2013-05-21 04:30:00,
2013-05-20 21:35:00,55.5,45.5,29.91,North,32767,0.0,0.0,69,0.00,,,0.00,Wunderground v.1.13,2013-05-21 04:35:00,
2013-05-20 21:45:00,55.0,45.8,29.91,North,32767,0.0,0.0,71,0.00,,,0.00,Wunderground v.1.13,2013-05-21 04:45:00,
2013-05-20 21:55:00,54.4,45.6,29.92,North,360,0.0,0.0,72,0.00,,,0.00,Wunderground v.1.13,2013-05-21 04:55:00,
2013-05-20 22:00:00,54.1,45.6,29.92,North,32767,0.0,0.0,73,0.00,,,0.00,Wunderground v.1.13,2013-05-21 05:00:00,
2013-05-20 22:06:00,53.9,45.4,29.91,North,360,0.0,0.0,73,0.00,,,0.00,Wunderground v.1.13,2013-05-21 05:06:00,
2013-05-20 22:10:00,53.8,45.3,29.91,North,32767,0.0,0.0,73,0.00,,,0.00,Wunderground v.1.13,2013-05-21 05:10:00,
2013-05-20 22:20:00,53.3,45.2,29.91,North,360,0.0,0.0,74,0.00,,,0.00,Wunderground v.1.13,2013-05-21 05:20:00,
2013-05-20 22:25:00,53.2,45.1,29.91,North,32767,0.0,0.0,74,0.00,,,0.00,Wunderground v.1.13,2013-05-21 05:25:00,
2013-05-20 22:30:00,53.0,45.3,29.91,North,360,0.0,0.0,75,0.00,,,0.00,Wunderground v.1.13,2013-05-21 05:30:00,
2013-05-20 22:35:00,52.9,44.8,29.91,North,32767,0.0,0.0,74,0.00,,,0.00,Wunderground v.1.13,2013-05-21 05:35:00,
2013-05-20 22:40:00,52.8,44.7,29.91,North,360,0.0,0.0,74,0.00,,,0.00,Wunderground v.1.13,2013-05-21 05:40:00,
2013-05-20 22:45:00,52.7,45.0,29.91,North,32767,0.0,0.0,75,0.00,,,0.00,Wunderground v.1.13,2013-05-21 05:45:00,
2013-05-20 22:55:00,52.5,44.8,29.91,North,360,0.0,0.0,75,0.00,,,0.00,Wunderground v.1.13,2013-05-21 05:55:00,
2013-05-20 23:00:00,52.4,44.7,29.91,North,32767,0.0,0.0,75,0.00,,,0.00,Wunderground v.1.13,2013-05-21 06:00:00,
2013-05-20 23:06:00,52.4,44.7,29.91,North,32767,0.0,0.0,75,0.00,,,0.00,Wunderground v.1.13,2013-05-21 06:06:00,
2013-05-20 23:15:00,52.3,45.0,29.91,North,32767,0.0,0.0,76,0.00,,,0.00,Wunderground v.1.13,2013-05-21 06:15:00,
2013-05-20 23:20:00,52.2,45.2,29.91,North,360,0.0,0.0,77,0.00,,,0.00,Wunderground v.1.13,2013-05-21 06:20:00,
2013-05-20 23:30:00,52.1,45.1,29.91,North,32767,0.0,0.0,77,0.00,,,0.00,Wunderground v.1.13,2013-05-21 06:30:00,
2013-05-20 23:35:00,52.0,45.0,29.91,North,32767,0.0,0.0,77,0.00,,,0.00,Wunderground v.1.13,2013-05-21 06:35:00,
2013-05-20 23:45:00,51.9,44.9,29.91,North,360,0.0,0.0,77,0.00,,,0.00,Wunderground v.1.13,2013-05-21 06:45:00,
2013-05-20 23:50:00,51.9,44.9,29.91,North,32767,0.0,0.0,77,0.00,,,0.00,Wunderground v.1.13,2013-05-21 06:50:00,
2013-05-20 23:55:00,51.9,44.9,29.91,North,32767,0.0,0.0,77,0.00,,,0.00,Wunderground v.1.13,2013-05-21 06:55:00,